Aviation Digital Data Service (ADDS)

Output produced by METARs form (2113 UTC 16 February 2019)
found at http://www.aviationweather.gov/metar/data/
 
Forecast for: DNAK (AKURE AIRPORT , NG)
Text: TAF DNAK 161530Z 1618/1724 16004KT 4000 HZ NSC
Forecast period: 1800 UTC 16 February 2019 to 0000 UTC 18 February 2019
Forecast type: FROM: standard forecast or significant change
Winds: from the SSE (160 degrees) at 5 MPH (4 knots; 2.1 m/s)
Visibility: 2.49 miles (4.01 km)
Ceiling: unknown
Clouds: missing
Weather: HZ  (haze)
Text: TEMPO 1705/1709 00000KT 3000
Forecast period: 0500 to 0900 UTC 17 February 2019
Forecast type: TEMPORARY: The following changes expected for less than half the time period
Winds: calm
Visibility: 1.86 miles (2.99 km)
Ceiling: unknown
Clouds: missing
Weather: no significant weather forecast for this period